createdAt,value
2017-09-12T00:00:16.674Z,7.90
2017-09-12T00:02:44.706Z,7.90
2017-09-12T00:05:12.714Z,8.00
2017-09-12T00:07:40.817Z,8.00
2017-09-12T00:10:09.602Z,7.90
2017-09-12T00:12:38.386Z,7.80
2017-09-12T00:15:08.068Z,7.80
2017-09-12T00:17:36.090Z,7.80
2017-09-12T00:20:04.142Z,7.80
2017-09-12T00:22:32.915Z,8.00
2017-09-12T00:25:00.954Z,8.00
2017-09-12T00:27:28.964Z,8.00
2017-09-12T00:29:59.658Z,8.10
2017-09-12T00:32:28.663Z,8.10
2017-09-12T00:34:57.642Z,8.00
2017-09-12T00:37:25.650Z,8.00
2017-09-12T00:39:54.458Z,7.90
2017-09-12T00:42:22.470Z,7.90
2017-09-12T00:44:51.270Z,7.90
2017-09-12T00:47:19.284Z,7.90
2017-09-12T00:49:51.090Z,7.90
2017-09-12T00:52:20.006Z,7.90
2017-09-12T00:54:48.014Z,7.90
2017-09-12T00:57:16.098Z,7.90
2017-09-12T00:59:44.098Z,7.80
2017-09-12T01:02:14.099Z,7.80
2017-09-12T01:04:42.874Z,7.90
2017-09-12T01:07:11.898Z,7.90
2017-09-12T01:09:40.802Z,7.90
2017-09-12T01:12:09.770Z,7.90
2017-09-12T01:14:37.794Z,7.90
2017-09-12T01:17:05.814Z,8.00
2017-09-12T01:19:34.792Z,8.00
2017-09-12T01:22:04.970Z,8.00
2017-09-12T01:24:33.741Z,7.90
2017-09-12T01:27:06.518Z,7.90
2017-09-12T01:29:37.230Z,8.00
2017-09-12T01:32:05.218Z,8.00
2017-09-12T01:34:34.026Z,7.90
2017-09-12T01:37:02.866Z,7.80
2017-09-12T01:39:32.882Z,7.80
2017-09-12T01:42:01.894Z,7.80
2017-09-12T01:44:31.905Z,7.70
2017-09-12T01:46:59.910Z,7.60
2017-09-12T01:49:27.962Z,7.60
2017-09-12T01:51:56.921Z,7.50
2017-09-12T01:54:25.713Z,7.40
2017-09-12T01:56:55.749Z,7.40
2017-09-12T01:59:23.773Z,7.40
2017-09-12T02:01:51.825Z,7.20
2017-09-12T02:04:19.849Z,7.10
2017-09-12T02:06:47.856Z,7.00
2017-09-12T02:09:15.921Z,7.10
2017-09-12T02:11:43.909Z,7.20
2017-09-12T02:14:12.841Z,7.40
2017-09-12T02:16:42.593Z,7.60
2017-09-12T02:19:11.381Z,7.70
2017-09-12T02:21:39.400Z,7.70
2017-09-12T02:24:12.938Z,7.70
2017-09-12T02:26:45.320Z,7.70
2017-09-12T02:29:15.138Z,7.70
2017-09-12T02:31:43.919Z,7.80
2017-09-12T02:34:16.352Z,7.80
2017-09-12T02:36:44.374Z,7.70
2017-09-12T02:39:12.409Z,7.80
2017-09-12T02:41:41.389Z,7.90
2017-09-12T02:44:10.370Z,8.00
2017-09-12T02:46:40.385Z,8.00
2017-09-12T02:49:08.417Z,8.10
2017-09-12T02:51:36.433Z,8.10
2017-09-12T02:54:05.441Z,8.10
2017-09-12T02:56:34.429Z,8.20
2017-09-12T02:59:03.452Z,8.20
2017-09-12T03:01:34.245Z,8.20
2017-09-12T03:04:03.301Z,8.20
2017-09-12T03:06:32.072Z,8.20
2017-09-12T03:09:01.012Z,8.20
2017-09-12T03:11:29.921Z,8.30
2017-09-12T03:13:58.888Z,8.40
2017-09-12T03:16:27.713Z,8.40
2017-09-12T03:18:55.705Z,8.40
2017-09-12T03:21:23.716Z,8.40
2017-09-12T03:23:52.661Z,8.40
2017-09-12T03:26:20.669Z,8.40
2017-09-12T03:28:48.705Z,8.40
2017-09-12T03:31:17.485Z,8.40
2017-09-12T03:33:46.269Z,8.50
2017-09-12T03:36:18.317Z,8.50
2017-09-12T03:38:46.332Z,8.40
2017-09-12T03:41:14.356Z,8.40
2017-09-12T03:43:47.328Z,8.50
2017-09-12T03:46:18.076Z,8.50
2017-09-12T03:48:47.912Z,8.50
2017-09-12T03:51:15.885Z,8.50
2017-09-12T03:53:43.908Z,8.50
2017-09-12T03:56:11.952Z,8.50
2017-09-12T03:58:39.964Z,8.50
2017-09-12T04:01:08.748Z,8.40
2017-09-12T04:03:36.764Z,8.40
2017-09-12T04:06:05.793Z,8.40
2017-09-12T04:08:34.808Z,8.40
2017-09-12T04:11:05.528Z,8.40
2017-09-12T04:13:34.440Z,8.40
2017-09-12T04:16:03.224Z,8.40
2017-09-12T04:18:32.040Z,8.30
2017-09-12T04:21:00.959Z,8.30
2017-09-12T04:23:28.980Z,8.30
2017-09-12T04:25:57.776Z,8.30
2017-09-12T04:28:25.792Z,8.30
2017-09-12T04:30:54.780Z,8.30
2017-09-12T04:33:22.807Z,8.30
2017-09-12T04:35:52.568Z,8.30
2017-09-12T04:38:20.584Z,8.30
2017-09-12T04:40:49.392Z,8.40
2017-09-12T04:43:18.436Z,8.40
2017-09-12T04:45:49.664Z,8.40
2017-09-12T04:48:17.707Z,8.40
2017-09-12T04:50:45.752Z,8.40
2017-09-12T04:53:14.543Z,8.40
2017-09-12T04:55:43.476Z,8.40
2017-09-12T04:58:11.492Z,8.50
2017-09-12T05:00:43.839Z,8.60
2017-09-12T05:03:12.813Z,8.60
2017-09-12T05:05:42.487Z,8.70
2017-09-12T05:08:10.512Z,8.70
2017-09-12T05:10:40.500Z,8.70
2017-09-12T05:13:12.460Z,8.80
2017-09-12T05:15:42.479Z,8.80
2017-09-12T05:18:11.525Z,8.80
2017-09-12T05:20:40.480Z,8.90
2017-09-12T05:23:08.495Z,8.90
2017-09-12T05:25:37.279Z,9.00
2017-09-12T05:28:06.232Z,8.90
2017-09-12T05:30:34.248Z,9.00
2017-09-12T05:33:02.267Z,9.00
2017-09-12T05:35:32.295Z,9.00
2017-09-12T05:38:01.255Z,9.00
2017-09-12T05:40:31.268Z,9.10
2017-09-12T05:43:00.188Z,9.10
2017-09-12T05:45:29.083Z,9.20
2017-09-12T05:47:59.835Z,9.30
2017-09-12T05:50:29.599Z,9.40
2017-09-12T05:53:03.210Z,9.30
2017-09-12T05:55:31.215Z,9.30
2017-09-12T05:57:59.250Z,9.30
2017-09-12T06:00:27.270Z,9.30
2017-09-12T06:02:55.286Z,9.30
2017-09-12T06:05:23.299Z,9.30
2017-09-12T06:07:51.335Z,9.20
2017-09-12T06:10:19.335Z,9.20
2017-09-12T06:12:47.386Z,9.20
2017-09-12T06:15:16.183Z,9.40
2017-09-12T06:17:44.966Z,9.40
2017-09-12T06:20:15.785Z,9.50
2017-09-12T06:22:48.343Z,9.50
2017-09-12T06:25:17.359Z,9.60
2017-09-12T06:27:46.163Z,9.60
2017-09-12T06:30:14.191Z,9.60
2017-09-12T06:32:48.003Z,9.70
2017-09-12T06:35:19.942Z,9.80
2017-09-12T06:37:47.970Z,9.90
2017-09-12T06:40:15.987Z,9.90
2017-09-12T06:42:44.895Z,10.00
2017-09-12T06:45:13.899Z,10.00
2017-09-12T06:47:42.867Z,10.10
2017-09-12T06:50:11.778Z,10.20
2017-09-12T06:52:39.811Z,10.30
2017-09-12T06:55:11.790Z,10.40
2017-09-12T06:57:39.818Z,10.40
2017-09-12T07:00:14.266Z,10.50
2017-09-12T07:02:42.310Z,10.50
2017-09-12T07:05:11.250Z,10.70
2017-09-12T07:07:39.271Z,10.80
2017-09-12T07:10:07.323Z,11.00
2017-09-12T07:12:35.346Z,11.00
2017-09-12T07:15:03.386Z,11.20
2017-09-12T07:17:31.426Z,11.20
2017-09-12T07:20:00.250Z,11.50
2017-09-12T07:22:28.275Z,11.50
2017-09-12T07:24:58.075Z,11.60
2017-09-12T07:27:27.118Z,11.60
2017-09-12T07:29:57.018Z,11.70
2017-09-12T07:32:25.042Z,11.90
2017-09-12T07:34:54.026Z,12.30
2017-09-12T07:37:22.050Z,12.70
2017-09-12T07:39:50.998Z,13.00
2017-09-12T07:42:19.977Z,13.40
2017-09-12T07:44:48.018Z,13.70
2017-09-12T07:47:16.043Z,13.90
2017-09-12T07:49:45.010Z,14.00
2017-09-12T07:52:13.026Z,14.10
2017-09-12T07:54:41.062Z,14.30
2017-09-12T07:57:12.922Z,14.20
2017-09-12T07:59:41.582Z,14.30
2017-09-12T08:02:10.594Z,14.40
2017-09-12T08:04:39.502Z,14.50
2017-09-12T08:07:07.526Z,14.80
2017-09-12T08:09:35.542Z,14.90
2017-09-12T08:12:04.510Z,15.10
2017-09-12T08:14:33.425Z,15.30
2017-09-12T08:17:01.442Z,15.20
2017-09-12T08:19:31.049Z,15.30
2017-09-12T08:22:00.074Z,15.40
2017-09-12T08:24:28.886Z,15.30
2017-09-12T08:27:02.589Z,15.20
2017-09-12T08:29:31.377Z,14.90
2017-09-12T08:32:01.161Z,14.80
2017-09-12T08:34:31.186Z,14.80
2017-09-12T08:37:02.938Z,14.90
2017-09-12T08:39:31.950Z,14.90
2017-09-12T08:42:02.665Z,15.10
2017-09-12T08:44:32.597Z,15.10
2017-09-12T08:47:02.310Z,15.20
2017-09-12T08:49:33.001Z,15.40
2017-09-12T08:52:01.017Z,15.30
2017-09-12T08:54:29.813Z,14.90
2017-09-12T08:56:59.833Z,14.90
2017-09-12T08:59:27.850Z,14.80
2017-09-12T09:01:57.009Z,15.10
2017-09-12T09:04:25.977Z,15.10
2017-09-12T09:06:54.778Z,15.20
2017-09-12T09:09:24.546Z,15.10
2017-09-12T09:12:02.326Z,15.10
2017-09-12T09:14:31.329Z,15.30
2017-09-12T09:16:59.356Z,15.70
2017-09-12T09:19:28.294Z,15.90
2017-09-12T09:22:03.726Z,15.50
2017-09-12T09:24:31.757Z,15.30
2017-09-12T09:27:00.681Z,15.40
2017-09-12T09:29:30.409Z,15.30
2017-09-12T09:31:58.505Z,15.30
2017-09-12T09:34:27.473Z,15.30
2017-09-12T09:36:56.613Z,15.10
2017-09-12T09:39:24.645Z,15.10
2017-09-12T09:41:54.749Z,14.80
2017-09-12T09:44:22.776Z,14.70
2017-09-12T09:46:55.949Z,14.70
2017-09-12T09:49:27.996Z,15.00
2017-09-12T09:52:00.269Z,15.00
2017-09-12T09:54:28.569Z,16.20
2017-09-12T09:56:57.361Z,17.80
2017-09-12T09:59:26.153Z,18.60
2017-09-12T10:01:54.181Z,18.60
2017-09-12T10:04:24.196Z,19.50
2017-09-12T10:06:53.192Z,19.70
2017-09-12T10:09:21.220Z,19.70
2017-09-12T10:11:49.248Z,19.40
2017-09-12T10:14:18.068Z,17.90
2017-09-12T10:16:46.099Z,17.80
2017-09-12T10:19:14.112Z,17.20
2017-09-12T10:21:46.620Z,16.70
2017-09-12T10:24:14.645Z,15.90
2017-09-12T10:26:46.384Z,15.60
2017-09-12T10:29:15.948Z,15.40
2017-09-12T10:31:44.005Z,15.40
2017-09-12T10:34:12.020Z,15.40
2017-09-12T10:36:41.716Z,15.60
2017-09-12T10:39:10.676Z,15.50
2017-09-12T10:41:38.676Z,15.50
2017-09-12T10:44:06.700Z,15.50
2017-09-12T10:46:40.285Z,15.60
2017-09-12T10:49:08.312Z,15.60
2017-09-12T10:51:37.300Z,15.80
2017-09-12T10:54:06.293Z,15.90
2017-09-12T10:56:36.304Z,16.10
2017-09-12T10:59:04.320Z,16.30
2017-09-12T11:01:32.377Z,16.50
2017-09-12T11:04:05.320Z,16.60
2017-09-12T11:06:33.360Z,16.60
2017-09-12T11:09:03.268Z,16.60
2017-09-12T11:11:32.060Z,16.60
2017-09-12T11:14:00.113Z,16.50
2017-09-12T11:16:28.932Z,17.00
2017-09-12T11:18:57.952Z,17.00
2017-09-12T11:21:25.996Z,17.30
2017-09-12T11:23:55.035Z,17.50
2017-09-12T11:26:23.948Z,17.60
2017-09-12T11:28:55.781Z,16.80
2017-09-12T11:31:23.795Z,16.70
2017-09-12T11:33:52.860Z,17.00
2017-09-12T11:36:21.664Z,17.80
2017-09-12T11:38:49.676Z,17.80
2017-09-12T11:41:17.692Z,18.20
2017-09-12T11:43:46.480Z,19.60
2017-09-12T11:46:15.260Z,19.00
2017-09-12T11:48:44.044Z,18.60
2017-09-12T11:51:12.844Z,18.20
2017-09-12T11:53:45.267Z,18.10
2017-09-12T11:56:13.804Z,18.10
2017-09-12T11:58:41.828Z,17.50
2017-09-12T12:01:09.852Z,17.80
2017-09-12T12:03:37.877Z,18.10
2017-09-12T12:06:05.899Z,18.60
2017-09-12T12:08:35.852Z,19.30
2017-09-12T12:11:03.884Z,20.30
2017-09-12T12:13:32.728Z,21.00
2017-09-12T12:16:01.696Z,21.20
2017-09-12T12:18:30.613Z,20.90
2017-09-12T12:20:59.580Z,20.00
2017-09-12T12:23:28.616Z,20.20
2017-09-12T12:25:57.420Z,21.00
2017-09-12T12:28:30.398Z,21.40
2017-09-12T12:30:59.359Z,21.40
2017-09-12T12:33:30.693Z,21.10
2017-09-12T12:35:58.724Z,20.30
2017-09-12T12:38:26.751Z,19.80
2017-09-12T12:40:55.715Z,19.20
2017-09-12T12:43:23.752Z,18.90
2017-09-12T12:45:52.532Z,18.50
2017-09-12T12:48:21.467Z,18.50
2017-09-12T12:50:49.484Z,19.10
2017-09-12T12:53:18.435Z,20.50
2017-09-12T12:55:46.459Z,21.40
2017-09-12T12:58:14.499Z,20.80
2017-09-12T13:00:43.288Z,21.00
2017-09-12T13:03:15.220Z,21.00
2017-09-12T13:05:43.239Z,21.00
2017-09-12T13:08:12.182Z,21.80
2017-09-12T13:10:42.200Z,22.80
2017-09-12T13:13:12.207Z,21.60
2017-09-12T13:15:42.251Z,20.70
2017-09-12T13:18:12.247Z,20.70
2017-09-12T13:20:41.165Z,20.70
2017-09-12T13:23:09.183Z,20.10
2017-09-12T13:25:38.099Z,19.40
2017-09-12T13:28:06.118Z,18.80
2017-09-12T13:30:37.611Z,18.50
2017-09-12T13:33:05.651Z,18.20
2017-09-12T13:35:34.659Z,18.00
2017-09-12T13:38:03.667Z,17.80
2017-09-12T13:40:31.694Z,17.70
2017-09-12T13:43:00.743Z,17.60
2017-09-12T13:45:28.859Z,17.50
2017-09-12T13:47:58.807Z,17.40
2017-09-12T13:50:26.845Z,18.40
2017-09-12T13:52:54.859Z,19.60
2017-09-12T13:55:22.895Z,20.20
2017-09-12T13:57:52.271Z,20.20
2017-09-12T14:00:21.215Z,20.80
2017-09-12T14:02:49.231Z,21.70
2017-09-12T14:05:19.176Z,22.80
2017-09-12T14:07:47.951Z,21.60
2017-09-12T14:10:17.694Z,21.60
2017-09-12T14:12:47.659Z,20.40
2017-09-12T14:15:16.455Z,20.40
2017-09-12T14:17:46.415Z,20.40
2017-09-12T14:20:14.434Z,20.70
2017-09-12T14:22:42.471Z,21.20
2017-09-12T14:25:10.499Z,21.50
2017-09-12T14:27:39.346Z,21.90
2017-09-12T14:30:08.146Z,20.20
2017-09-12T14:32:36.170Z,20.20
2017-09-12T14:35:04.187Z,20.20
2017-09-12T14:37:32.226Z,19.80
2017-09-12T14:40:01.198Z,20.00
2017-09-12T14:42:29.227Z,20.40
2017-09-12T14:44:57.255Z,20.60
2017-09-12T14:47:25.263Z,21.00
2017-09-12T14:49:54.191Z,20.80
2017-09-12T14:52:22.214Z,20.50
2017-09-12T14:54:50.239Z,20.50
2017-09-12T14:57:18.266Z,20.40
2017-09-12T14:59:46.294Z,20.90
2017-09-12T15:02:14.326Z,21.00
2017-09-12T15:04:42.350Z,21.00
2017-09-12T15:07:11.163Z,20.30
2017-09-12T15:09:39.167Z,20.20
2017-09-12T15:12:07.190Z,20.10
2017-09-12T15:14:36.978Z,19.80
2017-09-12T15:17:05.950Z,19.80
2017-09-12T15:19:35.986Z,19.30
2017-09-12T15:22:04.014Z,19.30
2017-09-12T15:24:32.019Z,19.30
2017-09-12T15:27:02.730Z,18.90
2017-09-12T15:29:31.498Z,18.90
2017-09-12T15:32:00.514Z,19.00
2017-09-12T15:34:29.442Z,19.40
2017-09-12T15:36:58.242Z,19.00
2017-09-12T15:39:26.258Z,19.00
2017-09-12T15:41:54.281Z,18.90
2017-09-12T15:44:24.070Z,19.20
2017-09-12T15:46:54.050Z,19.20
2017-09-12T15:49:23.050Z,19.10
2017-09-12T15:51:53.090Z,19.40
2017-09-12T15:54:21.141Z,19.60
2017-09-12T15:56:50.050Z,19.80
2017-09-12T15:59:18.094Z,19.30
2017-09-12T16:01:47.006Z,19.30
2017-09-12T16:04:15.021Z,19.20
2017-09-12T16:06:43.041Z,18.80
2017-09-12T16:09:12.022Z,18.90
2017-09-12T16:11:40.041Z,18.80
2017-09-12T16:14:09.253Z,18.20
2017-09-12T16:16:37.269Z,17.10
2017-09-12T16:19:05.325Z,17.00
2017-09-12T16:21:37.914Z,17.20
2017-09-12T16:24:06.926Z,17.40
2017-09-12T16:26:35.704Z,17.70
2017-09-12T16:29:03.726Z,17.70
2017-09-12T16:31:32.782Z,17.90
2017-09-12T16:34:03.617Z,16.50
2017-09-12T16:36:33.401Z,16.00
2017-09-12T16:39:01.409Z,16.00
2017-09-12T16:41:29.466Z,15.60
2017-09-12T16:43:57.457Z,15.70
2017-09-12T16:46:26.339Z,15.90
2017-09-12T16:48:55.129Z,16.00
2017-09-12T16:51:24.049Z,16.00
2017-09-12T16:53:53.065Z,15.80
2017-09-12T16:56:25.033Z,15.60
2017-09-12T16:58:59.834Z,15.70
2017-09-12T17:01:27.853Z,15.60
2017-09-12T17:03:58.553Z,15.00
2017-09-12T17:06:27.614Z,15.00
2017-09-12T17:08:57.381Z,14.60
2017-09-12T17:11:25.389Z,14.60
2017-09-12T17:13:54.428Z,14.60
2017-09-12T17:16:23.357Z,14.50
2017-09-12T17:18:51.401Z,14.50
2017-09-12T17:21:20.321Z,14.40
2017-09-12T17:23:50.316Z,14.40
2017-09-12T17:26:19.104Z,14.40
2017-09-12T17:28:49.816Z,14.40
2017-09-12T17:31:17.833Z,14.40
2017-09-12T17:33:48.837Z,14.30
2017-09-12T17:36:16.868Z,14.30
2017-09-12T17:38:45.908Z,14.30
2017-09-12T17:41:18.289Z,14.20
2017-09-12T17:43:49.104Z,14.10
2017-09-12T17:46:18.129Z,14.10
2017-09-12T17:48:47.064Z,14.10
2017-09-12T17:51:15.088Z,14.00
2017-09-12T17:53:43.249Z,13.90
2017-09-12T17:56:12.040Z,13.90
2017-09-12T17:58:40.861Z,13.90
2017-09-12T18:01:08.864Z,13.80
2017-09-12T18:03:36.888Z,13.80
2017-09-12T18:06:04.908Z,13.70
2017-09-12T18:08:32.945Z,13.60
2017-09-12T18:11:00.980Z,13.50
2017-09-12T18:13:30.744Z,13.30
2017-09-12T18:15:58.890Z,13.30
2017-09-12T18:18:26.912Z,13.20
2017-09-12T18:20:55.876Z,13.10
2017-09-12T18:23:24.644Z,13.00
2017-09-12T18:25:52.668Z,12.90
2017-09-12T18:28:25.432Z,12.70
2017-09-12T18:30:55.454Z,12.70
2017-09-12T18:33:23.489Z,12.50
2017-09-12T18:35:51.513Z,12.50
2017-09-12T18:38:21.281Z,12.40
2017-09-12T18:40:50.277Z,12.40
2017-09-12T18:43:19.412Z,12.40
2017-09-12T18:45:48.193Z,12.30
2017-09-12T18:48:16.996Z,12.20
2017-09-12T18:50:45.148Z,12.20
2017-09-12T18:53:13.948Z,12.10
2017-09-12T18:55:43.729Z,12.00
2017-09-12T18:58:11.768Z,12.00
2017-09-12T19:00:40.833Z,12.00
2017-09-12T19:03:08.853Z,11.90
2017-09-12T19:05:37.009Z,11.90
2017-09-12T19:08:05.068Z,11.80
2017-09-12T19:10:33.080Z,11.80
2017-09-12T19:13:01.136Z,11.70
2017-09-12T19:15:29.212Z,11.70
2017-09-12T19:17:58.140Z,11.60
2017-09-12T19:20:26.184Z,11.50
2017-09-12T19:22:56.744Z,11.40
2017-09-12T19:25:26.832Z,11.30
2017-09-12T19:27:55.625Z,11.00
2017-09-12T19:30:25.413Z,11.10
2017-09-12T19:32:53.464Z,11.10
2017-09-12T19:35:21.495Z,11.00
2017-09-12T19:37:50.275Z,10.80
2017-09-12T19:40:20.060Z,10.80
2017-09-12T19:42:51.640Z,10.80
2017-09-12T19:45:21.360Z,10.80
2017-09-12T19:47:49.412Z,10.70
2017-09-12T19:50:18.200Z,10.70
2017-09-12T19:52:47.012Z,10.70
2017-09-12T19:55:15.044Z,10.70
2017-09-12T19:57:43.064Z,10.70
2017-09-12T20:00:11.120Z,10.70
2017-09-12T20:02:39.151Z,10.80
2017-09-12T20:05:07.176Z,10.80
2017-09-12T20:07:35.255Z,10.80
2017-09-12T20:10:04.180Z,10.80
2017-09-12T20:12:32.199Z,10.80
2017-09-12T20:15:01.027Z,11.00
2017-09-12T20:17:29.136Z,11.00
2017-09-12T20:19:58.808Z,11.30
2017-09-12T20:22:27.003Z,11.20
2017-09-12T20:24:55.787Z,11.40
2017-09-12T20:27:25.583Z,11.50
2017-09-12T20:29:53.631Z,11.50
2017-09-12T20:32:21.671Z,11.60
2017-09-12T20:34:49.683Z,11.70
2017-09-12T20:37:17.755Z,11.70
2017-09-12T20:39:45.773Z,11.70
2017-09-12T20:42:13.811Z,11.70
2017-09-12T20:44:42.035Z,11.80
2017-09-12T20:47:10.055Z,11.80
2017-09-12T20:49:39.103Z,11.80
2017-09-12T20:52:07.115Z,11.80
2017-09-12T20:54:36.083Z,11.80
2017-09-12T20:57:04.110Z,11.90
2017-09-12T20:59:32.159Z,11.90
2017-09-12T21:02:00.956Z,11.90
2017-09-12T21:04:30.735Z,12.00
2017-09-12T21:06:58.762Z,12.00
2017-09-12T21:09:27.743Z,12.00
2017-09-12T21:11:55.767Z,12.00
2017-09-12T21:14:23.815Z,12.00
2017-09-12T21:16:53.542Z,12.00
2017-09-12T21:19:21.566Z,12.00
2017-09-12T21:21:49.599Z,12.00
2017-09-12T21:24:17.619Z,12.00
2017-09-12T21:26:45.643Z,12.00
2017-09-12T21:29:18.943Z,12.00
2017-09-12T21:31:48.674Z,12.00
2017-09-12T21:34:16.711Z,12.00
2017-09-12T21:36:45.507Z,11.90
2017-09-12T21:39:14.451Z,11.90
2017-09-12T21:41:42.438Z,11.90
2017-09-12T21:44:10.475Z,11.90
2017-09-12T21:46:40.427Z,11.80
2017-09-12T21:49:08.459Z,11.80
2017-09-12T21:51:36.507Z,11.70
2017-09-12T21:54:04.538Z,11.70
2017-09-12T21:56:33.522Z,11.70
2017-09-12T21:59:01.554Z,11.70
2017-09-12T22:01:30.599Z,11.80
2017-09-12T22:03:59.591Z,11.80
2017-09-12T22:06:27.630Z,11.80
2017-09-12T22:08:56.646Z,11.80
2017-09-12T22:11:25.630Z,11.90
2017-09-12T22:13:53.690Z,11.90
2017-09-12T22:16:22.702Z,11.80
2017-09-12T22:18:50.755Z,11.80
2017-09-12T22:21:18.758Z,11.90
2017-09-12T22:23:48.766Z,11.90
2017-09-12T22:26:16.790Z,12.00
2017-09-12T22:28:44.830Z,12.00
2017-09-12T22:31:14.618Z,12.10
2017-09-12T22:33:42.646Z,12.10
2017-09-12T22:36:10.730Z,12.10
2017-09-12T22:38:38.774Z,12.10
2017-09-12T22:41:07.538Z,12.20
2017-09-12T22:43:37.347Z,12.20
2017-09-12T22:46:06.134Z,12.20
2017-09-12T22:48:34.938Z,12.20
2017-09-12T22:51:04.863Z,12.20
2017-09-12T22:53:32.874Z,12.20
2017-09-12T22:56:01.866Z,12.20
2017-09-12T22:58:29.947Z,12.20
2017-09-12T23:00:57.970Z,12.20
2017-09-12T23:03:25.997Z,12.20
2017-09-12T23:05:54.018Z,12.30
2017-09-12T23:08:23.039Z,12.30
2017-09-12T23:10:51.054Z,12.30
2017-09-12T23:13:19.095Z,12.30
2017-09-12T23:15:47.114Z,12.30
2017-09-12T23:18:16.150Z,12.30
2017-09-12T23:20:45.166Z,12.30
2017-09-12T23:23:13.246Z,12.30
2017-09-12T23:25:42.034Z,12.20
2017-09-12T23:28:11.814Z,12.20
2017-09-12T23:30:39.877Z,12.20
2017-09-12T23:33:08.862Z,12.20
2017-09-12T23:35:36.937Z,12.20
2017-09-12T23:38:05.726Z,12.20
2017-09-12T23:40:33.753Z,12.20
2017-09-12T23:43:01.791Z,12.20
2017-09-12T23:45:29.793Z,12.20
2017-09-12T23:47:57.817Z,12.20
2017-09-12T23:50:25.857Z,12.20
2017-09-12T23:52:53.885Z,12.10
2017-09-12T23:55:22.666Z,12.10
2017-09-12T23:57:53.489Z,12.10
